Time;durP1;ratioP1;P1;durP2;ratioP2;P2;SDS_P1;SDS_P2;PMS_P1;PMS_P2;Temp;Humidity;BMP_temperature;BMP_pressure;BME280_temperature;BME280_humidity;BME280_pressure;Samples;Min_cycle;Max_cycle;Signal;HPM_P1;HPM_P2
2021/03/14 00:00:28;;;;;;;1.38;0.50;;;;;;;5.24;67.79;94249.59;5051338;28;20037;-81
2021/03/14 00:02:53;;;;;;;1.90;0.57;;;;;;;5.21;67.93;94225.38;5050985;28;20029;-80
2021/03/14 00:05:20;;;;;;;2.10;0.40;;;;;;;4.88;68.49;94221.25;5051424;28;20033;-80
2021/03/14 00:07:45;;;;;;;0.80;0.40;;;;;;;4.80;69.10;94270.09;5051040;28;20037;-80
2021/03/14 00:10:12;;;;;;;1.77;0.30;;;;;;;4.48;70.61;94241.91;5068953;28;20024;-79
2021/03/14 00:12:37;;;;;;;3.58;1.15;;;;;;;4.36;72.16;94300.25;5051154;28;20045;-80
2021/03/14 00:15:04;;;;;;;0.85;0.38;;;;;;;3.39;80.48;94287.50;5051140;28;20040;-80
2021/03/14 00:17:29;;;;;;;1.75;0.25;;;;;;;3.18;83.55;94284.31;5050967;28;20032;-80
2021/03/14 00:19:54;;;;;;;0.20;0.20;;;;;;;2.77;85.79;94263.66;5050822;28;20056;-76
2021/03/14 00:22:20;;;;;;;1.88;0.30;;;;;;;2.73;88.36;94262.66;5051812;28;20025;-76
2021/03/14 00:24:45;;;;;;;3.95;0.45;;;;;;;2.65;88.55;94252.72;5049725;28;20033;-73
2021/03/14 00:27:11;;;;;;;0.93;0.20;;;;;;;2.56;89.99;94259.66;5047891;28;20045;-75
2021/03/14 00:29:36;;;;;;;3.40;0.50;;;;;;;2.40;90.58;94260.81;5048574;28;20155;-73
2021/03/14 00:32:03;;;;;;;1.48;0.50;;;;;;;2.32;91.59;94264.81;5048779;28;20402;-73
2021/03/14 00:34:31;;;;;;;4.88;0.60;;;;;;;2.13;93.36;94235.00;5049656;28;20025;-76
2021/03/14 00:36:57;;;;;;;2.05;0.55;;;;;;;2.17;93.64;94278.03;5050359;28;20468;-76
2021/03/14 00:39:23;;;;;;;0.40;0.10;;;;;;;2.07;93.73;94234.28;5049301;28;20041;-75
2021/03/14 00:41:48;;;;;;;0.30;0.30;;;;;;;2.39;93.76;94261.88;5048671;28;20041;-76
2021/03/14 00:44:14;;;;;;;0.90;0.13;;;;;;;2.19;93.99;94281.16;5053739;28;20406;-75
2021/03/14 00:46:39;;;;;;;0.60;0.20;;;;;;;2.17;93.77;94263.06;5054262;28;20029;-76
2021/03/14 00:49:05;;;;;;;0.60;0.20;;;;;;;2.06;93.76;94243.97;5055902;28;20033;-76
2021/03/14 00:51:30;;;;;;;1.10;0.40;;;;;;;2.12;94.44;94262.31;5053828;28;20043;-75
2021/03/14 00:53:55;;;;;;;0.22;0.10;;;;;;;2.13;94.04;94254.16;5053941;28;20391;-75
2021/03/14 00:56:21;;;;;;;0.98;0.20;;;;;;;2.13;93.86;94271.75;5053734;28;20056;-76
2021/03/14 00:58:46;;;;;;;0.65;0.25;;;;;;;2.22;94.49;94278.00;5052438;28;20162;-76
2021/03/14 01:01:11;;;;;;;0.20;0.20;;;;;;;1.82;93.79;94240.44;5055455;28;20036;-75
2021/03/14 01:03:37;;;;;;;0.50;0.10;;;;;;;2.19;94.28;94260.16;5053649;28;20128;-76
2021/03/14 01:06:02;;;;;;;0.40;0.20;;;;;;;2.26;94.40;94265.91;5052401;28;20033;-76
2021/03/14 01:08:27;;;;;;;0.93;0.20;;;;;;;2.04;94.73;94256.56;5053211;28;20026;-76
2021/03/14 01:10:53;;;;;;;0.25;0.25;;;;;;;2.14;94.71;94273.31;5069070;28;20037;-77
2021/03/14 01:13:18;;;;;;;0.75;0.38;;;;;;;2.08;94.75;94256.81;5054016;28;20644;-75
2021/03/14 01:15:44;;;;;;;2.03;0.45;;;;;;;2.15;95.15;94267.81;5052075;28;20037;-75
2021/03/14 01:18:11;;;;;;;0.35;0.10;;;;;;;1.78;95.42;94263.00;5053270;28;20049;-74
2021/03/14 01:20:36;;;;;;;0.28;0.20;;;;;;;1.96;95.27;94265.03;5053527;28;20025;-76
2021/03/14 01:23:01;;;;;;;6.03;0.43;;;;;;;1.98;95.84;94251.63;5053370;28;20040;-75
2021/03/14 01:25:27;;;;;;;0.35;0.30;;;;;;;1.73;96.07;94223.72;5051125;28;20029;-76
2021/03/14 01:27:53;;;;;;;2.53;0.82;;;;;;;2.15;95.09;94240.75;5053959;28;20033;-77
2021/03/14 01:30:20;;;;;;;1.52;0.63;;;;;;;2.15;95.85;94248.63;5053447;28;20542;-76
2021/03/14 01:32:46;;;;;;;0.82;0.40;;;;;;;1.78;96.01;94242.81;5053404;28;20712;-76
2021/03/14 01:35:13;;;;;;;0.55;0.30;;;;;;;1.86;96.10;94254.59;5053399;28;20123;-76
2021/03/14 01:37:38;;;;;;;0.60;0.60;;;;;;;1.96;95.99;94265.03;5053030;28;20047;-75
2021/03/14 01:40:05;;;;;;;0.47;0.20;;;;;;;1.90;95.79;94265.34;5054954;28;20071;-76
2021/03/14 01:42:31;;;;;;;1.23;0.30;;;;;;;1.81;96.98;94260.66;5053081;28;20094;-78
2021/03/14 01:44:57;;;;;;;2.67;0.22;;;;;;;1.32;96.90;94246.69;5051752;28;20438;-76
2021/03/14 01:47:34;;;;;;;2.05;0.40;;;;;;;1.44;97.78;94249.81;5052167;28;20070;-75
2021/03/14 01:50:02;;;;;;;2.03;0.57;;;;;;;1.71;97.13;94225.81;5052231;28;20763;-75
2021/03/14 01:52:27;;;;;;;2.22;0.65;;;;;;;1.67;96.30;94222.94;5052310;28;20025;-75
2021/03/14 01:54:53;;;;;;;0.47;0.20;;;;;;;1.65;97.47;94245.25;5053442;28;20507;-74
2021/03/14 01:57:19;;;;;;;1.05;0.40;;;;;;;1.70;96.36;94230.28;5051906;28;20052;-75
2021/03/14 01:59:45;;;;;;;0.30;0.30;;;;;;;1.68;96.55;94242.88;5050915;28;20040;-73
2021/03/14 02:02:10;;;;;;;0.43;0.43;;;;;;;1.91;96.24;94233.59;5051734;28;20052;-74
2021/03/14 02:04:36;;;;;;;0.80;0.55;;;;;;;2.04;95.35;94246.06;5052031;28;20394;-75
2021/03/14 02:07:01;;;;;;;1.00;0.52;;;;;;;2.19;95.12;94260.16;5053380;28;20033;-74
2021/03/14 02:09:27;;;;;;;0.60;0.60;;;;;;;2.25;94.39;94261.69;5067235;28;20402;-74
2021/03/14 02:11:56;;;;;;;0.52;0.52;;;;;;;2.04;94.70;94266.28;5051566;28;20052;-76
2021/03/14 02:14:22;;;;;;;0.90;0.40;;;;;;;2.11;94.14;94266.78;5051978;28;20041;-74
2021/03/14 02:16:50;;;;;;;0.50;0.30;;;;;;;2.11;94.40;94277.28;5051611;28;20103;-75
2021/03/14 02:19:23;;;;;;;0.50;0.50;;;;;;;2.09;94.66;94267.03;5053687;28;20032;-74
2021/03/14 02:21:49;;;;;;;1.52;1.00;;;;;;;2.24;94.00;94254.88;5050043;28;20041;-74
2021/03/14 02:24:18;;;;;;;5.82;1.08;;;;;;;1.99;93.34;94233.00;5051373;28;20528;-72
2021/03/14 02:26:44;;;;;;;1.73;0.90;;;;;;;2.56;92.99;94259.66;5050096;28;20522;-74
2021/03/14 02:29:12;;;;;;;0.95;0.80;;;;;;;2.38;92.50;94260.31;5051566;28;20041;-73
2021/03/14 02:31:40;;;;;;;1.08;0.60;;;;;;;2.31;93.08;94265.88;5051053;28;20029;-73
2021/03/14 02:34:11;;;;;;;0.38;0.38;;;;;;;2.34;93.31;94260.06;5053210;28;20048;-73
2021/03/14 02:36:40;;;;;;;0.85;0.70;;;;;;;2.76;92.29;94267.34;5049813;28;20513;-74
2021/03/14 02:39:09;;;;;;;0.40;0.40;;;;;;;3.01;91.46;94262.91;5066091;28;20041;-73
2021/03/14 02:41:36;;;;;;;0.40;0.40;;;;;;;2.86;90.59;94269.88;5050642;28;20032;-74
2021/03/14 02:44:02;;;;;;;0.28;0.28;;;;;;;2.57;91.45;94254.13;5049660;28;20114;-74
2021/03/14 02:46:28;;;;;;;0.45;0.30;;;;;;;2.37;91.62;94245.63;5066345;28;20120;-74
2021/03/14 02:48:55;;;;;;;1.15;0.40;;;;;;;2.47;91.37;94256.03;5051526;28;20116;-73
2021/03/14 02:51:21;;;;;;;0.43;0.20;;;;;;;2.40;92.20;94258.97;5050625;28;20041;-74
2021/03/14 02:53:47;;;;;;;0.57;0.22;;;;;;;2.70;91.34;94262.41;5050672;28;20049;-74
2021/03/14 02:56:13;;;;;;;0.45;0.13;;;;;;;2.60;91.17;94264.06;5050456;28;20475;-73
2021/03/14 02:58:40;;;;;;;0.30;0.20;;;;;;;2.64;90.30;94263.50;5049203;28;20721;-73
2021/03/14 03:01:07;;;;;;;1.17;0.25;;;;;;;2.90;90.64;94272.75;5052440;28;20104;-74
2021/03/14 03:03:34;;;;;;;2.80;0.40;;;;;;;2.75;89.58;94270.25;5050399;28;20052;-74
2021/03/14 03:06:00;;;;;;;0.25;0.10;;;;;;;2.83;89.20;94277.53;5050373;28;20064;-73
2021/03/14 03:08:27;;;;;;;0.38;0.10;;;;;;;2.84;89.31;94277.25;5049097;28;20119;-73
2021/03/14 03:10:53;;;;;;;1.15;0.28;;;;;;;2.88;88.92;94287.22;5050400;28;20496;-73
2021/03/14 03:13:20;;;;;;;0.20;0.10;;;;;;;3.08;88.41;94268.66;5052223;28;20494;-74
2021/03/14 03:15:47;;;;;;;1.13;0.30;;;;;;;2.99;88.68;94286.06;5065628;28;20037;-74
2021/03/14 03:18:14;;;;;;;0.10;0.10;;;;;;;2.80;88.27;94272.81;5049856;28;20038;-73
2021/03/14 03:20:40;;;;;;;0.10;0.00;;;;;;;2.78;89.04;94282.84;5049722;28;20033;-74
2021/03/14 03:23:05;;;;;;;0.35;0.20;;;;;;;2.95;88.50;94296.34;5049555;28;20037;-73
2021/03/14 03:25:31;;;;;;;0.13;0.13;;;;;;;3.20;89.30;94292.69;5049585;28;20178;-74
2021/03/14 03:27:57;;;;;;;0.25;0.20;;;;;;;3.08;89.25;94284.41;5050245;28;20025;-74
2021/03/14 03:30:25;;;;;;;0.47;0.20;;;;;;;3.12;89.17;94280.94;5048660;28;20379;-74
2021/03/14 03:32:51;;;;;;;0.30;0.20;;;;;;;3.08;89.57;94300.97;5048964;28;20144;-74
2021/03/14 03:35:18;;;;;;;0.35;0.35;;;;;;;2.78;90.56;94303.84;5049706;28;20137;-74
2021/03/14 03:37:49;;;;;;;1.55;0.22;;;;;;;2.95;90.00;94304.22;5048526;28;20051;-74
2021/03/14 03:40:19;;;;;;;0.40;0.20;;;;;;;2.67;90.63;94305.00;5051747;28;20390;-74
2021/03/14 03:43:05;;;;;;;0.95;0.30;;;;;;;2.70;90.66;94294.69;5049870;28;20048;-74
2021/03/14 03:45:34;;;;;;;0.50;0.20;;;;;;;2.68;91.01;94320.47;5050120;28;20041;-74
2021/03/14 03:48:00;;;;;;;0.13;0.10;;;;;;;2.61;89.79;94333.13;5050311;28;20135;-74
2021/03/14 03:50:27;;;;;;;0.20;0.20;;;;;;;2.71;89.73;94311.22;5050163;28;20037;-74
2021/03/14 03:52:54;;;;;;;0.68;0.20;;;;;;;2.91;89.21;94331.31;5065408;28;20441;-75
2021/03/14 03:55:21;;;;;;;0.63;0.20;;;;;;;2.73;89.53;94319.63;5052193;28;20036;-75
2021/03/14 03:57:47;;;;;;;0.68;0.50;;;;;;;2.82;89.49;94318.78;5049014;28;20037;-75
2021/03/14 04:00:16;;;;;;;0.80;0.10;;;;;;;2.58;88.85;94325.78;5050188;28;20036;-74
2021/03/14 04:02:42;;;;;;;0.20;0.15;;;;;;;2.60;89.57;94342.81;5050110;28;20041;-76
2021/03/14 04:05:10;;;;;;;0.10;0.10;;;;;;;2.61;89.50;94346.25;5050399;28;20506;-75
2021/03/14 04:07:41;;;;;;;0.10;0.10;;;;;;;2.68;89.54;94357.22;5050132;28;20033;-76
2021/03/14 04:10:10;;;;;;;0.13;0.10;;;;;;;2.52;89.89;94356.53;5052375;28;20083;-76
2021/03/14 04:12:39;;;;;;;0.10;0.00;;;;;;;2.48;90.73;94354.72;5048838;28;20029;-77
2021/03/14 04:15:11;;;;;;;0.03;0.00;;;;;;;2.54;90.49;94345.75;5066100;28;20086;-77
2021/03/14 04:17:38;;;;;;;0.95;0.10;;;;;;;2.75;90.26;94364.78;5049841;28;20041;-79
2021/03/14 04:20:07;;;;;;;0.03;0.03;;;;;;;2.71;89.74;94361.13;5050219;28;20036;-77
2021/03/14 04:22:33;;;;;;;0.10;0.10;;;;;;;2.49;90.34;94366.78;5050450;28;20056;-76
2021/03/14 04:25:01;;;;;;;0.98;0.45;;;;;;;2.60;89.74;94363.03;5052298;28;20029;-78
2021/03/14 04:27:27;;;;;;;0.15;0.15;;;;;;;2.64;89.49;94369.31;5050346;28;20411;-77
2021/03/14 04:29:53;;;;;;;0.10;0.10;;;;;;;2.65;89.85;94377.97;5050392;28;20522;-78
2021/03/14 04:32:21;;;;;;;0.00;0.00;;;;;;;2.71;88.47;94382.91;5050387;28;20037;-78
2021/03/14 04:34:47;;;;;;;0.10;0.10;;;;;;;2.60;89.60;94379.56;5066143;28;20397;-78
2021/03/14 04:37:13;;;;;;;0.00;0.00;;;;;;;2.63;89.84;94380.88;5052068;28;20033;-77
2021/03/14 04:39:40;;;;;;;0.95;0.28;;;;;;;2.57;89.71;94401.13;5050100;28;20510;-75
2021/03/14 04:42:06;;;;;;;0.13;0.10;;;;;;;2.46;90.04;94411.97;5050295;28;20037;-76
2021/03/14 04:44:32;;;;;;;0.13;0.00;;;;;;;2.45;89.85;94426.91;5050522;28;20038;-76
2021/03/14 04:46:57;;;;;;;0.00;0.00;;;;;;;2.17;91.79;94453.81;5050259;28;20033;-77
2021/03/14 04:49:23;;;;;;;0.00;0.00;;;;;;;1.68;93.74;94483.25;5068385;28;20529;-78
2021/03/14 04:51:49;;;;;;;0.05;0.05;;;;;;;0.78;97.28;94479.28;5050302;28;20049;-74
2021/03/14 04:54:16;;;;;;;2.10;0.00;;;;;;;0.42;98.77;94467.94;5048248;28;20041;-72
2021/03/14 04:56:42;;;;;;;0.75;0.03;;;;;;;0.34;99.17;94485.94;5048679;28;20049;-72
2021/03/14 04:59:10;;;;;;;1.05;0.20;;;;;;;0.22;100.00;94494.78;5047740;28;20171;-73
2021/03/14 05:01:38;;;;;;;0.52;0.30;;;;;;;0.22;100.00;94488.78;5048966;28;20021;-74
2021/03/14 05:04:07;;;;;;;0.20;0.10;;;;;;;0.20;100.00;94465.47;5050770;28;20029;-72
2021/03/14 05:06:34;;;;;;;0.20;0.20;;;;;;;0.15;100.00;94493.44;5047560;28;20491;-72
2021/03/14 05:09:01;;;;;;;0.88;0.20;;;;;;;0.18;100.00;94472.00;5046978;28;20395;-72
2021/03/14 05:11:27;;;;;;;0.40;0.17;;;;;;;0.24;100.00;94484.06;5046958;28;20033;-70
2021/03/14 05:13:52;;;;;;;0.28;0.08;;;;;;;0.17;100.00;94460.75;5048387;28;20033;-72
2021/03/14 05:16:18;;;;;;;0.08;0.08;;;;;;;0.35;100.00;94506.59;5050433;28;20079;-73
2021/03/14 05:18:45;;;;;;;1.30;0.10;;;;;;;0.11;100.00;94493.16;5048360;28;20045;-71
2021/03/14 05:21:12;;;;;;;0.22;0.10;;;;;;;0.18;100.00;94513.84;5048001;28;20041;-72
2021/03/14 05:23:38;;;;;;;0.32;0.20;;;;;;;0.31;100.00;94508.19;5048099;28;20260;-71
2021/03/14 05:26:08;;;;;;;0.60;0.30;;;;;;;0.44;100.00;94526.00;5048500;28;20045;-72
2021/03/14 05:28:35;;;;;;;0.43;0.10;;;;;;;0.39;100.00;94522.59;5047535;28;20029;-72
2021/03/14 05:31:00;;;;;;;0.10;0.10;;;;;;;0.40;100.00;94524.94;5052903;28;20029;-72
2021/03/14 05:33:25;;;;;;;0.20;0.10;;;;;;;0.45;99.92;94540.66;5052082;28;20037;-74
2021/03/14 05:35:51;;;;;;;0.30;0.20;;;;;;;0.54;99.55;94546.19;5067969;28;20052;-74
2021/03/14 05:38:16;;;;;;;0.38;0.30;;;;;;;0.51;99.75;94542.28;5052373;28;20045;-74
2021/03/14 05:40:42;;;;;;;2.15;0.52;;;;;;;0.60;99.86;94550.41;5052013;28;20064;-74
2021/03/14 05:43:08;;;;;;;0.82;0.52;;;;;;;0.68;99.66;94559.63;5053952;28;20397;-74
2021/03/14 05:45:33;;;;;;;0.75;0.75;;;;;;;0.71;99.51;94572.19;5067714;28;20037;-74
2021/03/14 05:47:59;;;;;;;0.57;0.50;;;;;;;0.49;99.58;94562.66;5052063;28;20100;-73
2021/03/14 05:50:27;;;;;;;3.30;1.20;;;;;;;0.73;99.50;94578.75;5050485;28;20575;-74
2021/03/14 05:52:52;;;;;;;7.90;1.10;;;;;;;0.69;99.50;94569.81;5050722;28;20402;-75
2021/03/14 05:55:20;;;;;;;1.02;0.70;;;;;;;0.59;99.82;94561.94;5054167;28;20037;-75
2021/03/14 05:57:50;;;;;;;0.60;0.43;;;;;;;0.61;99.70;94578.16;5050492;28;20483;-74
2021/03/14 06:00:52;;;;;;;1.73;0.63;;;;;;;0.64;99.72;94584.72;5051963;28;20040;-76
2021/03/14 06:03:10;;;;;;;2.92;1.10;;;;;;;0.81;99.26;94572.22;5050719;28;20136;-74
2021/03/14 06:05:36;;;;;;;2.80;0.60;;;;;;;0.83;98.99;94577.22;5052174;28;20128;-74
2021/03/14 06:08:03;;;;;;;1.00;0.60;;;;;;;0.82;98.45;94560.72;5051487;28;20183;-74
2021/03/14 06:10:28;;;;;;;1.70;0.68;;;;;;;0.90;98.54;94591.63;5051779;28;20048;-72
2021/03/14 06:12:54;;;;;;;1.67;0.88;;;;;;;0.93;98.01;94578.03;5052101;28;20510;-72
2021/03/14 06:15:19;;;;;;;0.47;0.43;;;;;;;0.85;98.18;94562.81;5051586;28;20037;-74
2021/03/14 06:17:44;;;;;;;1.40;0.88;;;;;;;0.99;97.80;94557.88;5050934;28;20112;-74
2021/03/14 06:20:34;;;;;;;0.52;0.35;;;;;;;0.64;98.29;94546.25;5051122;28;20068;-74
2021/03/14 06:23:13;;;;;;;1.80;0.90;;;;;;;0.96;97.83;94569.66;5049781;28;20033;-72
2021/03/14 06:25:51;;;;;;;1.42;0.90;;;;;;;1.31;96.76;94565.56;5050098;28;20033;-72
2021/03/14 06:28:16;;;;;;;0.65;0.50;;;;;;;1.26;96.95;94570.78;5053399;28;20090;-72
2021/03/14 06:30:43;;;;;;;1.13;0.45;;;;;;;1.36;96.00;94586.53;5051582;28;20037;-71
2021/03/14 06:33:15;;;;;;;2.45;0.45;;;;;;;1.27;96.50;94591.47;5051063;28;20068;-74
2021/03/14 06:35:48;;;;;;;0.38;0.10;;;;;;;1.15;96.36;94609.25;5051140;28;20530;-74
2021/03/14 06:38:33;;;;;;;3.47;0.50;;;;;;;1.36;96.33;94604.88;5050823;28;20098;-72
2021/03/14 06:41:01;;;;;;;1.65;0.50;;;;;;;1.54;95.54;94622.75;5050514;28;20057;-73
2021/03/14 06:43:30;;;;;;;2.05;0.60;;;;;;;1.55;94.76;94607.78;5050645;28;20061;-72
2021/03/14 06:45:56;;;;;;;1.08;0.90;;;;;;;1.57;95.23;94624.03;5051485;28;20017;-72
2021/03/14 06:48:28;;;;;;;0.77;0.77;;;;;;;1.76;94.68;94637.44;5065918;28;20571;-72
2021/03/14 06:50:54;;;;;;;;;;;;;;;1.72;94.57;94636.38;5066310;28;20387;-72
2021/03/14 06:53:24;;;;;;;0.85;0.80;;;;;;;2.04;93.51;94642.16;5050504;28;19916;-72
2021/03/14 06:55:52;;;;;;;0.40;0.35;;;;;;;1.44;94.86;94671.72;5050677;28;20127;-72
2021/03/14 06:58:36;;;;;;;0.98;0.50;;;;;;;1.40;96.13;94632.13;5052212;28;20048;-72
2021/03/14 07:01:19;;;;;;;1.13;0.80;;;;;;;1.47;95.97;94635.28;5050768;28;20098;-71
2021/03/14 07:03:45;;;;;;;;;;;;;;;1.37;96.53;94658.84;5050721;28;20056;-72
2021/03/14 07:06:19;;;;;;;0.63;0.60;;;;;;;1.14;97.66;94661.91;5050148;28;19969;-73
2021/03/14 07:08:47;;;;;;;4.22;1.45;;;;;;;1.03;97.84;94648.78;5048853;28;20059;-73
2021/03/14 07:11:31;;;;;;;1.55;1.10;;;;;;;0.95;98.14;94654.50;5050209;28;20036;-72
2021/03/14 07:13:56;;;;;;;0.40;0.20;;;;;;;0.69;98.94;94660.66;5050087;28;20025;-72
2021/03/14 07:16:39;;;;;;;0.60;0.08;;;;;;;0.71;99.20;94666.41;5052039;28;20547;-70
2021/03/14 07:19:06;;;;;;;0.45;0.45;;;;;;;0.86;98.50;94665.72;5050246;28;20045;-70
2021/03/14 07:21:32;;;;;;;0.82;0.80;;;;;;;0.81;98.74;94665.69;5047950;28;20068;-70
2021/03/14 07:23:57;;;;;;;1.73;0.65;;;;;;;1.05;98.42;94687.81;5048477;28;20154;-70
2021/03/14 07:26:51;;;;;;;0.30;0.30;;;;;;;1.02;98.36;94694.34;5049624;28;20033;-71
2021/03/14 07:29:17;;;;;;;0.43;0.40;;;;;;;1.04;97.39;94702.72;5044763;28;20067;-70
2021/03/14 07:31:43;;;;;;;0.93;0.80;;;;;;;1.09;97.39;94703.81;5049313;28;20181;-71
2021/03/14 07:34:08;;;;;;;0.98;0.70;;;;;;;0.99;97.51;94707.16;5051421;28;20017;-70
2021/03/14 07:36:34;;;;;;;0.60;0.50;;;;;;;0.87;98.09;94722.25;5048092;28;20040;-70
2021/03/14 07:39:00;;;;;;;4.82;0.63;;;;;;;0.90;97.76;94735.66;5048825;28;20545;-69
2021/03/14 07:41:28;;;;;;;3.58;0.90;;;;;;;0.73;99.02;94741.03;5049112;28;20045;-70
2021/03/14 07:43:53;;;;;;;0.75;0.40;;;;;;;0.40;100.00;94739.47;5049326;28;20051;-69
2021/03/14 07:46:23;;;;;;;0.20;0.20;;;;;;;0.30;100.00;94751.69;5050071;28;20032;-70
2021/03/14 07:48:50;;;;;;;0.60;0.35;;;;;;;0.29;100.00;94750.13;5049039;28;20041;-71
2021/03/14 07:51:19;;;;;;;0.20;0.17;;;;;;;0.16;100.00;94748.72;5047750;28;20094;-72
2021/03/14 07:53:44;;;;;;;0.93;0.47;;;;;;;0.22;100.00;94756.34;5049305;28;20033;-71
2021/03/14 07:56:10;;;;;;;0.60;0.52;;;;;;;0.33;100.00;94772.91;5048211;28;20037;-71
2021/03/14 07:58:36;;;;;;;2.17;0.50;;;;;;;0.17;100.00;94779.06;5047774;28;20036;-70
2021/03/14 08:01:27;;;;;;;1.40;0.40;;;;;;;0.32;100.00;94792.28;5051465;28;20044;-69
2021/03/14 08:03:53;;;;;;;1.13;0.45;;;;;;;0.34;100.00;94794.63;5049574;28;20060;-70
2021/03/14 08:06:40;;;;;;;0.57;0.20;;;;;;;0.35;100.00;94794.38;5049171;28;20041;-71
2021/03/14 08:09:06;;;;;;;2.22;0.90;;;;;;;0.35;100.00;94778.69;5049159;28;20090;-70
2021/03/14 08:11:31;;;;;;;1.40;0.93;;;;;;;0.70;99.82;94806.19;5048961;28;20041;-71
2021/03/14 08:13:57;;;;;;;2.22;0.93;;;;;;;0.82;99.37;94791.13;5049498;28;20033;-73
2021/03/14 08:16:23;;;;;;;0.57;0.40;;;;;;;0.91;98.60;94801.91;5048246;28;20055;-66
2021/03/14 08:18:54;;;;;;;2.03;0.90;;;;;;;0.99;97.62;94789.13;5051331;28;20379;-73
2021/03/14 08:21:19;;;;;;;2.25;0.80;;;;;;;1.24;97.57;94806.06;5049697;28;20041;-70
2021/03/14 08:23:47;;;;;;;3.25;0.80;;;;;;;1.12;97.27;94802.81;5048867;28;20064;-76
2021/03/14 08:26:32;;;;;;;1.55;0.80;;;;;;;1.51;95.65;94798.06;5047724;28;20048;-76
2021/03/14 08:29:04;;;;;;;2.03;0.70;;;;;;;1.48;95.44;94795.94;5049770;28;20084;-69
2021/03/14 08:31:52;;;;;;;3.47;0.95;;;;;;;1.56;95.31;94796.25;5049769;28;20078;-69
2021/03/14 08:34:20;;;;;;;1.88;1.08;;;;;;;1.62;94.41;94797.06;5067384;28;20075;-72
2021/03/14 08:36:47;;;;;;;1.33;0.90;;;;;;;1.44;94.40;94771.31;5047703;28;20087;-72
2021/03/14 08:39:29;;;;;;;1.08;1.00;;;;;;;1.47;95.07;94808.25;5046808;28;20041;-72
2021/03/14 08:41:57;;;;;;;2.72;1.40;;;;;;;1.57;95.34;94802.28;5048721;28;20566;-71
2021/03/14 08:44:31;;;;;;;4.25;1.20;;;;;;;1.35;95.35;94770.22;5049738;28;20404;-72
2021/03/14 08:46:58;;;;;;;2.42;1.17;;;;;;;1.38;96.10;94806.38;5050134;28;20110;-69
2021/03/14 08:49:24;;;;;;;3.58;0.82;;;;;;;1.29;96.13;94796.38;5049559;28;20028;-69
2021/03/14 08:51:51;;;;;;;2.55;1.85;;;;;;;1.56;96.45;94813.81;5051133;28;20033;-70
2021/03/14 08:54:24;;;;;;;3.58;1.15;;;;;;;1.45;94.73;94786.00;5049062;28;20036;-69
2021/03/14 08:56:54;;;;;;;1.60;1.50;;;;;;;1.42;94.15;94774.16;5048193;28;20673;-73
2021/03/14 08:59:20;;;;;;;4.95;1.85;;;;;;;1.59;94.12;94805.47;5049448;28;20110;-70
2021/03/14 09:01:54;;;;;;;6.65;1.88;;;;;;;1.77;93.33;94801.59;5049155;28;20482;-71
2021/03/14 09:04:31;;;;;;;3.45;1.30;;;;;;;1.67;92.73;94814.66;5053546;28;20033;-70
2021/03/14 09:07:07;;;;;;;0.93;0.80;;;;;;;1.70;92.72;94817.56;5053943;28;20124;-68
2021/03/14 09:09:34;;;;;;;3.50;1.60;;;;;;;2.00;92.58;94830.00;5053377;28;20033;-67
2021/03/14 09:12:07;;;;;;;2.50;0.50;;;;;;;1.61;91.65;94797.31;5049422;28;20041;-69
2021/03/14 09:14:38;;;;;;;2.15;0.90;;;;;;;1.64;91.72;94797.63;5052854;28;20441;-71
2021/03/14 09:17:11;;;;;;;3.38;1.00;;;;;;;1.80;91.39;94811.56;5050785;28;20487;-69
2021/03/14 09:19:38;;;;;;;3.60;1.20;;;;;;;1.61;91.42;94758.78;5052144;28;20638;-71
2021/03/14 09:22:07;;;;;;;1.63;1.20;;;;;;;2.05;90.49;94840.53;5053695;28;20024;-70
2021/03/14 09:24:43;;;;;;;2.30;0.90;;;;;;;2.32;91.13;94840.31;5052646;28;20537;-75
2021/03/14 09:27:15;;;;;;;2.15;1.17;;;;;;;2.01;90.70;94804.56;5053169;28;20491;-70
2021/03/14 09:29:43;;;;;;;7.50;1.48;;;;;;;2.20;89.10;94846.84;5052383;28;20029;-74
2021/03/14 09:32:33;;;;;;;1.55;1.05;;;;;;;2.40;88.69;94846.09;5051353;28;20076;-70
2021/03/14 09:35:19;;;;;;;1.08;0.90;;;;;;;2.21;89.59;94767.09;5053438;28;20048;-73
2021/03/14 09:38:09;;;;;;;1.55;0.90;;;;;;;2.49;89.07;94757.94;5051565;28;20056;-82
2021/03/14 09:40:49;;;;;;;2.00;0.90;;;;;;;2.71;86.81;94824.09;5053130;28;20029;-69
2021/03/14 09:43:20;;;;;;;3.08;1.15;;;;;;;3.04;86.78;94816.75;5037160;28;20028;-70
2021/03/14 09:45:55;;;;;;;4.18;1.13;;;;;;;2.90;85.19;94832.25;5052672;28;20041;-68
2021/03/14 09:48:25;;;;;;;3.05;1.02;;;;;;;3.21;86.95;94837.50;5052622;28;20029;-68
2021/03/14 09:50:51;;;;;;;2.65;0.82;;;;;;;3.36;83.98;94827.75;5052497;28;20063;-69
2021/03/14 09:53:18;;;;;;;1.90;0.70;;;;;;;3.27;86.71;94807.50;5050067;28;20150;-68
2021/03/14 09:55:49;;;;;;;1.67;0.77;;;;;;;3.15;84.89;94828.03;5052636;28;20440;-71
2021/03/14 09:58:19;;;;;;;3.83;0.98;;;;;;;3.62;85.87;94825.06;5054285;28;20025;-69
2021/03/14 10:00:47;;;;;;;1.90;0.40;;;;;;;3.44;82.87;94834.31;5052605;28;20041;-71
2021/03/14 10:03:15;;;;;;;1.23;0.60;;;;;;;3.38;83.17;94824.88;5052513;28;20218;-80
2021/03/14 10:05:42;;;;;;;2.53;0.50;;;;;;;2.74;81.21;94846.44;5052761;28;20048;-74
2021/03/14 10:08:10;;;;;;;2.25;0.50;;;;;;;3.00;82.69;94845.38;5050979;28;20103;-73
2021/03/14 10:10:38;;;;;;;1.02;0.52;;;;;;;2.61;82.29;94839.88;5052454;28;20021;-76
2021/03/14 10:13:07;;;;;;;1.13;0.32;;;;;;;2.62;82.15;94865.06;5054233;28;20021;-77
2021/03/14 10:15:34;;;;;;;0.52;0.52;;;;;;;2.60;84.65;94862.69;5067564;28;20036;-73
2021/03/14 10:18:01;;;;;;;2.55;0.60;;;;;;;2.73;83.33;94855.38;5052252;28;20042;-75
2021/03/14 10:20:26;;;;;;;1.90;0.38;;;;;;;2.58;84.34;94849.03;5052309;28;20100;-77
2021/03/14 10:23:00;;;;;;;0.85;0.63;;;;;;;3.00;81.98;94834.88;5052448;28;20390;-77
2021/03/14 10:25:31;;;;;;;1.52;0.50;;;;;;;3.26;83.07;94855.88;5052684;28;20071;-78
2021/03/14 10:28:17;;;;;;;0.95;0.40;;;;;;;3.34;81.94;94855.38;5054181;28;20021;-69
2021/03/14 10:30:45;;;;;;;1.33;0.60;;;;;;;3.60;81.78;94864.78;5050285;28;20033;-70
2021/03/14 10:33:15;;;;;;;0.77;0.50;;;;;;;3.74;80.15;94865.03;5051964;28;20112;-72
2021/03/14 10:35:58;;;;;;;0.98;0.32;;;;;;;3.87;81.34;94861.03;5052055;28;20049;-72
2021/03/14 10:38:24;;;;;;;1.33;0.77;;;;;;;4.10;79.55;94857.81;5051811;28;20112;-73
2021/03/14 10:40:50;;;;;;;1.60;0.50;;;;;;;3.83;79.88;94865.25;5052010;28;20112;-73
2021/03/14 10:43:21;;;;;;;2.05;0.45;;;;;;;3.68;79.24;94860.03;5052655;28;20076;-73
2021/03/14 10:45:48;;;;;;;0.77;0.32;;;;;;;3.47;79.65;94870.59;5051582;28;20380;-74
2021/03/14 10:48:13;;;;;;;1.67;0.52;;;;;;;3.49;81.67;94865.06;5051293;28;20086;-73
2021/03/14 10:50:39;;;;;;;1.83;0.60;;;;;;;3.60;79.42;94845.59;5050139;28;20041;-73
2021/03/14 10:53:16;;;;;;;0.82;0.47;;;;;;;3.35;77.82;94875.34;5051569;28;20040;-73
2021/03/14 10:55:44;;;;;;;1.02;0.32;;;;;;;2.96;79.94;94877.69;5050251;28;20402;-72
2021/03/14 10:58:17;;;;;;;1.67;0.50;;;;;;;3.27;79.85;94873.22;5053368;28;20036;-71
2021/03/14 11:00:54;;;;;;;2.08;0.60;;;;;;;3.62;79.17;94869.78;5051494;28;20041;-71
2021/03/14 11:03:38;;;;;;;2.10;0.63;;;;;;;3.42;79.34;94873.22;5050024;28;20083;-71
2021/03/14 11:06:16;;;;;;;3.15;1.33;;;;;;;3.71;78.33;94872.66;5050229;28;20041;-72
2021/03/14 11:08:56;;;;;;;1.60;0.73;;;;;;;4.03;81.72;94859.91;5051150;28;20045;-71
2021/03/14 11:11:34;;;;;;;1.60;0.45;;;;;;;3.37;76.94;94857.44;5051020;28;20037;-73
2021/03/14 11:14:00;;;;;;;1.17;0.60;;;;;;;3.85;75.12;94866.56;5051019;28;20032;-73
2021/03/14 11:16:26;;;;;;;3.33;0.80;;;;;;;3.82;76.79;94861.03;5051249;28;20021;-74
2021/03/14 11:19:00;;;;;;;0.93;0.60;;;;;;;3.89;77.62;94845.78;5052944;28;20479;-73
2021/03/14 11:21:26;;;;;;;1.67;0.70;;;;;;;4.22;75.48;94844.31;5049308;28;20077;-73
2021/03/14 11:23:51;;;;;;;2.70;0.90;;;;;;;4.85;74.48;94839.19;5051156;28;20088;-72
2021/03/14 11:26:16;;;;;;;3.35;0.60;;;;;;;4.30;73.45;94840.31;5049988;28;20057;-72
2021/03/14 11:28:46;;;;;;;0.73;0.63;;;;;;;4.40;72.26;94833.19;5050875;28;20032;-73
2021/03/14 11:31:11;;;;;;;1.85;0.50;;;;;;;4.84;74.09;94844.75;5051341;28;20025;-73
2021/03/14 11:33:37;;;;;;;1.20;0.63;;;;;;;5.00;73.74;94834.88;5049607;28;20038;-73
2021/03/14 11:36:02;;;;;;;2.28;0.80;;;;;;;5.11;76.19;94852.97;5050915;28;20518;-74
2021/03/14 11:38:28;;;;;;;1.30;0.60;;;;;;;4.39;75.49;94857.13;5050493;28;20037;-74
2021/03/14 11:40:56;;;;;;;2.30;0.55;;;;;;;2.83;79.27;94879.81;5050672;28;20049;-71
2021/03/14 11:43:22;;;;;;;1.20;0.35;;;;;;;2.55;79.95;94888.94;5052466;28;20025;-70
2021/03/14 11:45:51;;;;;;;3.60;1.27;;;;;;;2.05;85.56;94900.84;5050425;28;20457;-69
2021/03/14 11:48:17;;;;;;;1.83;0.73;;;;;;;1.58;88.94;94898.22;5050254;28;20505;-70